Time;durP1;ratioP1;P1;durP2;ratioP2;P2;SDS_P1;SDS_P2;PMS_P1;PMS_P2;Temp;Humidity;BMP_temperature;BMP_pressure;BME280_temperature;BME280_humidity;BME280_pressure;Samples;Min_cycle;Max_cycle;Signal;HPM_P1;HPM_P2
2021/06/18 00:00:44;;;;;;;11.95;3.30;;;;;;;21.54;54.23;100432.22;4916532;29;20067;-92
2021/06/18 00:03:09;;;;;;;9.25;2.10;;;;;;;21.54;53.64;100437.53;4918542;29;20388;-91
2021/06/18 00:05:35;;;;;;;12.05;2.47;;;;;;;21.32;54.37;100433.78;4918528;29;20024;-91
2021/06/18 00:08:00;;;;;;;14.60;3.00;;;;;;;21.34;53.48;100429.09;4918368;29;20032;-92
2021/06/18 00:10:26;;;;;;;8.48;2.58;;;;;;;21.42;53.59;100434.41;4918484;29;20033;-92
2021/06/18 00:12:52;;;;;;;8.85;2.40;;;;;;;21.38;53.22;100436.59;4918256;29;20025;-92
2021/06/18 00:15:18;;;;;;;7.30;2.20;;;;;;;21.17;53.28;100434.53;4918352;29;20505;-92
2021/06/18 00:17:43;;;;;;;11.00;1.98;;;;;;;21.02;52.74;100435.41;4932924;29;20036;-91
2021/06/18 00:20:12;;;;;;;8.23;1.60;;;;;;;21.20;52.50;100438.69;4918296;29;20055;-91
2021/06/18 00:22:38;;;;;;;9.98;1.80;;;;;;;21.19;52.45;100445.03;4916908;29;20491;-92
2021/06/18 00:25:06;;;;;;;9.15;1.67;;;;;;;21.11;51.66;100437.03;4918291;29;20040;-91
2021/06/18 00:27:31;;;;;;;2.38;1.27;;;;;;;21.14;51.59;100448.19;4917991;29;20032;-92
2021/06/18 00:29:57;;;;;;;3.85;1.00;;;;;;;20.97;51.47;100441.25;4918196;29;20654;-91
2021/06/18 00:32:23;;;;;;;4.53;1.20;;;;;;;21.06;50.38;100458.91;4916736;29;20063;-91
2021/06/18 00:34:48;;;;;;;6.30;1.30;;;;;;;21.03;50.49;100461.09;4918136;29;20483;-90
2021/06/18 00:37:14;;;;;;;3.92;1.13;;;;;;;21.15;49.91;100473.09;4918032;29;20082;-91
2021/06/18 00:39:40;;;;;;;2.97;0.95;;;;;;;21.03;49.11;100455.75;4918047;29;20039;-90
2021/06/18 00:42:06;;;;;;;2.92;1.20;;;;;;;21.12;48.38;100465.41;4917879;29;20028;-91
2021/06/18 00:44:32;;;;;;;7.68;1.23;;;;;;;20.92;48.40;100465.78;4917843;29;20024;-91
2021/06/18 00:46:57;;;;;;;7.90;1.13;;;;;;;20.84;48.73;100467.66;4917904;29;20035;-91
2021/06/18 00:49:24;;;;;;;3.40;0.82;;;;;;;20.93;48.53;100456.78;4917698;29;20032;-91
2021/06/18 00:51:50;;;;;;;2.40;0.93;;;;;;;20.90;48.13;100457.13;4917739;29;20036;-91
2021/06/18 00:54:27;;;;;;;4.88;0.93;;;;;;;20.54;48.64;100451.31;4916301;29;20423;-92
2021/06/18 00:56:54;;;;;;;2.15;0.95;;;;;;;20.72;48.19;100449.31;4917618;29;20383;-91
2021/06/18 00:59:20;;;;;;;3.83;0.90;;;;;;;20.73;47.82;100442.13;4917624;29;20032;-92
2021/06/18 01:01:45;;;;;;;8.57;1.00;;;;;;;20.63;48.02;100439.66;4931972;29;20435;-91
2021/06/18 01:04:11;;;;;;;5.15;0.90;;;;;;;20.67;47.36;100434.81;4917526;29;20028;-91
2021/06/18 01:06:38;;;;;;;3.45;0.90;;;;;;;20.65;47.62;100434.16;4917528;29;20120;-91
2021/06/18 01:09:08;;;;;;;4.07;1.23;;;;;;;20.49;47.88;100435.81;4917323;29;20036;-92
2021/06/18 01:11:37;;;;;;;3.38;0.80;;;;;;;20.83;46.88;100434.78;4916588;29;20060;-92
2021/06/18 01:14:18;;;;;;;2.63;1.10;;;;;;;20.80;47.40;100435.13;4931867;29;20038;-91
2021/06/18 01:16:51;;;;;;;3.25;0.90;;;;;;;20.58;47.90;100440.13;4917253;29;20031;-91
2021/06/18 01:19:40;;;;;;;3.28;0.80;;;;;;;20.58;48.10;100440.13;4916963;29;20067;-92
2021/06/18 01:22:11;;;;;;;6.78;1.10;;;;;;;20.57;48.21;100437.63;4917009;29;20513;-91
2021/06/18 01:25:00;;;;;;;2.83;0.75;;;;;;;20.52;48.28;100442.66;4917173;29;20028;-92
2021/06/18 01:27:43;;;;;;;10.30;1.10;;;;;;;20.44;48.32;100435.50;4915724;29;20032;-91
2021/06/18 01:30:18;;;;;;;9.85;1.80;;;;;;;20.30;48.73;100436.16;4917057;29;20099;-91
2021/06/18 01:32:58;;;;;;;3.30;0.95;;;;;;;20.48;48.18;100442.16;4916966;29;20032;-91
2021/06/18 01:35:27;;;;;;;2.97;0.85;;;;;;;20.30;49.05;100429.00;4916898;29;20039;-91
2021/06/18 01:37:56;;;;;;;5.20;1.10;;;;;;;20.36;48.93;100438.16;4916942;29;20044;-91
2021/06/18 01:40:24;;;;;;;2.50;0.90;;;;;;;20.40;48.92;100447.50;4915573;29;20475;-91
2021/06/18 01:42:51;;;;;;;4.45;1.15;;;;;;;20.40;48.33;100440.31;4916683;29;20028;-92
2021/06/18 01:45:18;;;;;;;1.67;0.70;;;;;;;20.27;49.11;100445.31;4916782;29;20087;-91
2021/06/18 01:47:45;;;;;;;4.88;0.95;;;;;;;20.21;48.53;100435.31;4916638;29;20038;-90
2021/06/18 01:50:22;;;;;;;2.75;0.88;;;;;;;20.35;49.34;100442.66;4916558;29;20558;-91
2021/06/18 01:52:55;;;;;;;3.17;0.70;;;;;;;20.29;49.00;100442.50;4916493;29;20036;-91
2021/06/18 01:55:23;;;;;;;2.55;0.65;;;;;;;20.34;48.98;100434.81;4916431;29;20056;-92
2021/06/18 01:57:52;;;;;;;1.75;0.88;;;;;;;20.13;49.87;100436.16;4916531;29;20064;-91
2021/06/18 02:00:19;;;;;;;4.03;0.68;;;;;;;20.09;49.42;100432.16;4931031;29;20024;-91
2021/06/18 02:02:46;;;;;;;2.15;0.60;;;;;;;20.12;48.97;100422.97;4916388;29;20028;-91
2021/06/18 02:05:13;;;;;;;4.95;0.93;;;;;;;20.14;48.95;100434.31;4916289;29;20039;-91
2021/06/18 02:07:39;;;;;;;2.60;0.77;;;;;;;20.04;48.84;100434.47;4916314;29;20095;-92
2021/06/18 02:10:07;;;;;;;4.43;1.17;;;;;;;20.10;48.47;100430.31;4916555;29;20074;-91
2021/06/18 02:12:33;;;;;;;5.60;1.13;;;;;;;19.98;48.40;100429.78;4916371;29;20383;-91
2021/06/18 02:14:59;;;;;;;4.47;1.13;;;;;;;19.81;49.01;100437.78;4916593;29;20455;-91
2021/06/18 02:17:29;;;;;;;2.35;0.82;;;;;;;19.88;48.89;100434.44;4930800;29;20497;-91
2021/06/18 02:19:56;;;;;;;2.35;0.63;;;;;;;19.96;48.58;100437.13;4916139;29;20115;-91
2021/06/18 02:22:23;;;;;;;3.92;1.02;;;;;;;19.96;48.64;100443.31;4915850;29;20398;-90
2021/06/18 02:24:49;;;;;;;3.45;1.00;;;;;;;19.86;48.78;100439.13;4916051;29;20092;-91
2021/06/18 02:27:16;;;;;;;5.70;1.48;;;;;;;20.03;48.41;100432.81;4915933;29;20379;-91
2021/06/18 02:29:43;;;;;;;4.15;0.88;;;;;;;20.02;49.02;100425.81;4915998;29;20060;-91
2021/06/18 02:32:14;;;;;;;3.63;0.80;;;;;;;20.08;48.26;100419.81;4916020;29;20024;-91
2021/06/18 02:34:40;;;;;;;3.22;0.70;;;;;;;20.07;49.07;100426.16;4916258;29;20372;-91
2021/06/18 02:37:07;;;;;;;2.88;0.85;;;;;;;20.04;48.94;100433.63;4914731;29;20032;-92
2021/06/18 02:39:33;;;;;;;1.88;0.80;;;;;;;19.95;48.74;100443.47;4915950;29;20032;-93
2021/06/18 02:41:58;;;;;;;4.20;1.00;;;;;;;20.01;49.27;100434.81;4915826;29;20032;-92
2021/06/18 02:44:24;;;;;;;2.00;0.80;;;;;;;19.83;49.49;100439.44;4916013;29;20035;-92
2021/06/18 02:47:01;;;;;;;4.35;1.00;;;;;;;19.85;49.90;100440.13;4914864;29;20028;-91
2021/06/18 02:49:43;;;;;;;3.63;0.90;;;;;;;19.97;49.72;100439.63;4915717;29;20092;-91
2021/06/18 02:52:11;;;;;;;4.90;1.40;;;;;;;19.74;51.18;100427.94;4915743;29;20028;-91
2021/06/18 02:54:43;;;;;;;9.65;1.60;;;;;;;19.91;51.38;100440.28;4915806;29;20517;-92
2021/06/18 02:57:19;;;;;;;2.25;1.27;;;;;;;19.74;52.57;100434.09;4915897;29;20518;-91
2021/06/18 03:00:10;;;;;;;3.95;1.40;;;;;;;19.77;53.01;100449.75;4915640;29;20036;-92
2021/06/18 03:02:43;;;;;;;4.88;1.63;;;;;;;19.36;55.40;100446.94;4915625;29;20132;-91
2021/06/18 03:05:12;;;;;;;5.05;1.15;;;;;;;19.34;55.60;100442.78;4915815;29;20387;-91
2021/06/18 03:07:42;;;;;;;4.72;1.48;;;;;;;19.25;56.70;100441.06;4915642;29;20483;-91
2021/06/18 03:10:11;;;;;;;6.68;1.67;;;;;;;19.36;56.98;100454.91;4915738;29;20024;-91
2021/06/18 03:12:41;;;;;;;7.32;2.67;;;;;;;19.19;57.67;100455.84;4915504;29;20111;-91
2021/06/18 03:15:08;;;;;;;5.78;2.20;;;;;;;19.20;58.31;100454.84;4915592;29;20039;-92
2021/06/18 03:17:41;;;;;;;6.68;2.10;;;;;;;19.19;59.42;100463.81;4915463;29;20027;-90
2021/06/18 03:20:15;;;;;;;6.47;2.08;;;;;;;18.97;60.07;100468.69;4915636;29;20103;-90
2021/06/18 03:22:42;;;;;;;6.68;2.55;;;;;;;18.83;60.86;100472.75;4915559;29;20687;-91
2021/06/18 03:25:08;;;;;;;4.78;1.95;;;;;;;18.73;61.05;100481.81;4904831;29;20033;-91
2021/06/18 03:27:36;;;;;;;5.40;2.13;;;;;;;18.91;60.54;100484.47;4920721;29;20063;-91
2021/06/18 03:30:04;;;;;;;5.32;2.55;;;;;;;18.73;61.49;100487.97;4915399;29;20411;-91
2021/06/18 03:32:31;;;;;;;5.30;2.17;;;;;;;18.89;60.69;100487.28;4914224;29;20123;-91
2021/06/18 03:34:58;;;;;;;6.85;2.42;;;;;;;18.80;61.18;100488.22;4913617;29;20047;-90
2021/06/18 03:37:25;;;;;;;8.15;3.00;;;;;;;18.80;60.75;100482.91;4912893;29;20024;-91
2021/06/18 03:39:51;;;;;;;5.93;2.20;;;;;;;18.67;61.48;100485.09;4912282;29;20056;-91
2021/06/18 03:42:17;;;;;;;7.20;2.45;;;;;;;18.71;61.21;100481.13;4916428;29;20086;-91
2021/06/18 03:44:43;;;;;;;6.90;2.30;;;;;;;18.72;61.34;100474.81;4899103;29;20471;-91
2021/06/18 03:47:10;;;;;;;8.35;2.00;;;;;;;18.73;61.31;100484.47;4898714;29;20069;-91
2021/06/18 03:49:36;;;;;;;6.57;2.30;;;;;;;18.70;61.65;100475.00;4899927;29;20040;-91
2021/06/18 03:52:02;;;;;;;9.10;2.63;;;;;;;18.67;61.34;100469.97;4900205;29;20052;-91
2021/06/18 03:54:32;;;;;;;6.25;2.50;;;;;;;18.63;61.37;100466.78;4899844;29;20056;-91
2021/06/18 03:56:58;;;;;;;7.93;2.67;;;;;;;18.45;61.71;100468.66;4900024;29;20052;-91
2021/06/18 03:59:25;;;;;;;8.50;2.10;;;;;;;18.68;60.93;100473.47;4898286;29;20025;-90
2021/06/18 04:01:56;;;;;;;6.13;2.47;;;;;;;18.63;61.26;100466.78;4899724;29;20116;-91
2021/06/18 04:04:23;;;;;;;8.05;2.63;;;;;;;18.36;62.52;100466.91;4900034;29;20028;-91
2021/06/18 04:06:50;;;;;;;6.43;2.72;;;;;;;18.49;61.58;100461.19;4900114;29;20056;-90
2021/06/18 04:09:16;;;;;;;11.25;2.92;;;;;;;18.55;61.49;100472.03;4899704;29;20028;-91
2021/06/18 04:11:44;;;;;;;7.00;2.50;;;;;;;18.62;60.99;100469.59;4899596;29;20076;-91
2021/06/18 04:14:11;;;;;;;5.88;2.60;;;;;;;18.67;61.09;100466.47;4898461;29;20439;-91
2021/06/18 04:16:38;;;;;;;12.95;2.72;;;;;;;18.60;61.30;100455.63;4898282;29;20063;-90
2021/06/18 04:19:09;;;;;;;8.02;2.75;;;;;;;18.68;61.22;100468.13;4899494;29;20420;-91
2021/06/18 04:21:40;;;;;;;8.27;2.75;;;;;;;18.68;61.71;100463.69;4899248;29;20037;-91
2021/06/18 04:24:06;;;;;;;7.55;2.60;;;;;;;18.64;61.66;100472.94;4899241;29;20455;-91
2021/06/18 04:26:31;;;;;;;10.40;2.72;;;;;;;18.59;61.35;100475.22;4899462;29;20088;-91
2021/06/18 04:28:56;;;;;;;7.95;3.20;;;;;;;18.48;61.75;100473.63;4899192;29;20032;-92
2021/06/18 04:31:22;;;;;;;8.50;2.38;;;;;;;18.73;60.77;100471.19;4899271;29;20036;-92
2021/06/18 04:33:47;;;;;;;5.88;2.70;;;;;;;18.61;61.02;100475.91;4899158;29;20099;-92
2021/06/18 04:36:12;;;;;;;7.32;2.90;;;;;;;18.71;60.73;100476.66;4899203;29;20020;-91
2021/06/18 04:38:39;;;;;;;6.40;2.65;;;;;;;18.71;61.05;100478.47;4913795;29;20056;-92
2021/06/18 04:41:04;;;;;;;10.50;3.03;;;;;;;18.77;60.79;100468.03;4899030;29;20035;-92
2021/06/18 04:43:29;;;;;;;5.40;2.28;;;;;;;18.75;60.66;100466.53;4899045;29;20103;-91
2021/06/18 04:45:55;;;;;;;7.05;2.50;;;;;;;18.78;60.17;100474.22;4898945;29;20029;-91
2021/06/18 04:48:20;;;;;;;10.63;2.25;;;;;;;18.72;60.08;100474.81;4898956;29;20488;-91
2021/06/18 04:50:46;;;;;;;9.40;2.78;;;;;;;18.56;60.33;100476.38;4899006;29;20020;-91
2021/06/18 04:53:11;;;;;;;8.40;2.78;;;;;;;18.72;59.49;100474.81;4898933;29;20107;-91
2021/06/18 04:55:41;;;;;;;8.50;2.60;;;;;;;18.56;60.45;100478.19;4898847;29;20123;-91
2021/06/18 04:58:08;;;;;;;6.13;2.13;;;;;;;18.66;60.20;100481.63;4898846;29;20033;-91
2021/06/18 05:00:33;;;;;;;5.20;2.25;;;;;;;18.84;59.85;100486.91;4898612;29;20025;-91
2021/06/18 05:02:59;;;;;;;8.65;2.47;;;;;;;18.54;60.14;100481.03;4898710;29;20028;-92
2021/06/18 05:05:25;;;;;;;12.68;3.25;;;;;;;18.61;60.21;100483.88;4897488;29;20056;-92
2021/06/18 05:07:55;;;;;;;7.25;2.70;;;;;;;18.86;59.71;100481.41;4898650;29;20491;-91
2021/06/18 05:10:21;;;;;;;7.82;2.70;;;;;;;18.70;60.85;100476.78;4898611;29;20028;-91
2021/06/18 05:12:47;;;;;;;4.90;2.25;;;;;;;18.58;61.03;100476.22;4899437;29;20067;-91
2021/06/18 05:15:12;;;;;;;6.72;2.50;;;;;;;18.79;60.45;100475.88;4906513;29;20064;-92
2021/06/18 05:17:38;;;;;;;8.30;3.15;;;;;;;18.57;61.21;100474.56;4912492;29;20025;-91
2021/06/18 05:20:04;;;;;;;7.35;2.50;;;;;;;18.86;60.37;100482.28;4905119;29;20036;-91
2021/06/18 05:22:30;;;;;;;7.43;2.75;;;;;;;18.78;60.75;100479.53;4902605;29;20088;-93
2021/06/18 05:24:56;;;;;;;5.78;2.50;;;;;;;18.80;60.92;100477.59;4898856;29;20428;-91
2021/06/18 05:27:21;;;;;;;7.68;2.65;;;;;;;18.95;60.64;100476.00;4912674;29;20024;-92
2021/06/18 05:29:46;;;;;;;7.68;2.63;;;;;;;18.80;61.25;100474.94;4931151;29;20047;-91
2021/06/18 05:32:12;;;;;;;13.82;2.80;;;;;;;18.93;60.86;100479.81;4918141;29;20074;-90
2021/06/18 05:34:37;;;;;;;9.25;2.25;;;;;;;18.97;60.75;100478.50;4907688;29;20482;-92
2021/06/18 05:37:03;;;;;;;5.63;2.60;;;;;;;18.93;60.65;100483.31;4916723;29;20189;-91
2021/06/18 05:39:28;;;;;;;9.77;2.67;;;;;;;18.97;60.30;100476.66;4916734;29;20032;-90
2021/06/18 05:41:54;;;;;;;6.47;2.67;;;;;;;19.17;60.36;100476.47;4904449;29;20068;-90
2021/06/18 05:44:19;;;;;;;6.55;3.17;;;;;;;18.92;60.63;100492.28;4906844;29;20033;-94
2021/06/18 05:46:45;;;;;;;9.75;3.13;;;;;;;18.75;61.51;100490.47;4930931;29;20025;-92
2021/06/18 05:49:11;;;;;;;12.48;3.42;;;;;;;18.82;61.09;100488.91;4916658;29;20122;-93
2021/06/18 05:51:36;;;;;;;6.80;2.28;;;;;;;18.73;60.97;100485.31;4916608;29;20035;-92
2021/06/18 05:54:02;;;;;;;5.68;2.33;;;;;;;18.87;61.07;100489.25;4916154;29;20037;-92
2021/06/18 05:56:27;;;;;;;6.65;2.33;;;;;;;18.93;60.79;100491.28;4916528;29;20028;-91
2021/06/18 05:58:53;;;;;;;5.78;2.33;;;;;;;18.88;60.99;100484.75;4916169;29;20028;-93
2021/06/18 06:01:18;;;;;;;7.88;3.22;;;;;;;18.99;59.96;100489.81;4916550;29;20020;-92
2021/06/18 06:03:44;;;;;;;7.15;3.00;;;;;;;19.07;59.96;100478.41;4916519;29;20316;-91
2021/06/18 06:06:10;;;;;;;4.15;2.50;;;;;;;19.03;59.91;100483.19;4931082;29;20083;-92
2021/06/18 06:08:36;;;;;;;8.52;2.50;;;;;;;19.08;60.00;100472.94;4916479;29;20032;-92
2021/06/18 06:11:02;;;;;;;10.80;2.90;;;;;;;19.12;60.10;100474.28;4916168;29;20031;-91
2021/06/18 06:13:27;;;;;;;8.02;2.70;;;;;;;19.14;59.78;100466.97;4915718;29;20028;-91
2021/06/18 06:15:53;;;;;;;4.40;1.98;;;;;;;19.01;59.71;100466.56;4916164;29;20028;-92
2021/06/18 06:18:19;;;;;;;8.57;2.50;;;;;;;19.09;60.04;100465.78;4916233;29;20122;-92
2021/06/18 06:20:46;;;;;;;9.82;2.70;;;;;;;19.14;59.84;100463.47;4921768;29;20028;-91
2021/06/18 06:23:13;;;;;;;6.03;2.05;;;;;;;19.02;60.15;100470.91;4916067;29;20558;-91
2021/06/18 06:25:39;;;;;;;6.93;2.92;;;;;;;19.02;59.73;100461.09;4917855;29;20032;-92
2021/06/18 06:28:05;;;;;;;7.28;2.17;;;;;;;19.15;59.65;100460.63;4919322;29;20076;-92
2021/06/18 06:30:31;;;;;;;4.70;2.00;;;;;;;19.25;59.51;100457.03;4915855;29;20297;-92
2021/06/18 06:32:56;;;;;;;13.23;2.72;;;;;;;19.20;58.17;100463.66;4914525;29;20268;-92
2021/06/18 06:35:24;;;;;;;6.35;2.88;;;;;;;19.12;59.25;100468.13;4916204;29;20032;-91
2021/06/18 06:37:49;;;;;;;5.60;2.00;;;;;;;19.30;58.04;100468.88;4916600;29;20439;-92
2021/06/18 06:40:16;;;;;;;8.48;2.22;;;;;;;19.27;58.40;100469.19;4916849;29;20070;-90
2021/06/18 06:42:41;;;;;;;4.95;2.00;;;;;;;19.25;58.74;100470.34;4915503;29;20032;-95
2021/06/18 06:45:07;;;;;;;5.05;2.20;;;;;;;19.22;59.05;100474.16;4980138;23;20510;-91
2021/06/18 06:47:32;;;;;;;6.75;2.00;;;;;;;19.16;59.04;100466.81;4896890;29;20606;-92
2021/06/18 06:49:58;;;;;;;6.43;2.03;;;;;;;19.24;59.42;100474.00;4896860;29;20088;-95
2021/06/18 06:54:53;;;;;;;8.88;2.17;;;;;;;19.28;58.33;100460.22;4902153;29;20404;-95
2021/06/18 06:57:20;;;;;;;7.78;2.28;;;;;;;19.06;59.01;100466.94;4895639;29;20029;-92
2021/06/18 06:59:46;;;;;;;9.63;2.20;;;;;;;19.16;59.38;100464.16;4896551;29;20028;-91
2021/06/18 07:02:11;;;;;;;5.40;1.77;;;;;;;19.28;58.58;100465.53;4884106;29;20032;-88
2021/06/18 07:04:37;;;;;;;8.15;2.33;;;;;;;19.45;58.29;100461.13;4890910;29;20032;-87
2021/06/18 07:07:02;;;;;;;6.53;1.90;;;;;;;19.40;58.82;100458.94;4876557;29;20428;-88
2021/06/18 07:09:28;;;;;;;9.75;2.40;;;;;;;19.49;58.97;100461.63;4893033;29;20100;-88
2021/06/18 07:11:53;;;;;;;7.63;2.10;;;;;;;19.44;58.40;100463.94;4880988;29;20048;-88
2021/06/18 07:14:18;;;;;;;8.43;2.50;;;;;;;19.48;58.19;100460.78;4879667;29;20033;-88
2021/06/18 07:16:44;;;;;;;6.55;2.60;;;;;;;19.43;59.04;100468.41;4888785;29;20310;-88
2021/06/18 07:19:09;;;;;;;7.35;2.67;;;;;;;19.54;58.85;100467.31;4899584;29;20507;-88
2021/06/18 07:21:35;;;;;;;9.05;2.03;;;;;;;19.60;59.27;100461.31;4896588;29;20417;-88
2021/06/18 07:24:00;;;;;;;10.23;3.35;;;;;;;19.58;59.05;100464.16;4881510;29;20060;-88
2021/06/18 07:26:27;;;;;;;7.05;1.92;;;;;;;19.64;58.85;100460.00;4881319;29;20025;-88
2021/06/18 07:28:52;;;;;;;8.90;1.77;;;;;;;19.80;59.14;100465.41;4879302;29;20096;-88
2021/06/18 07:31:17;;;;;;;5.18;1.80;;;;;;;19.91;58.97;100463.44;4885976;29;20037;-89
2021/06/18 07:33:43;;;;;;;9.65;1.77;;;;;;;19.76;59.34;100456.06;4881997;29;20116;-88
2021/06/18 07:36:08;;;;;;;7.63;2.20;;;;;;;19.80;58.99;100454.75;4884649;29;20028;-88
2021/06/18 07:38:34;;;;;;;5.38;1.90;;;;;;;19.88;58.85;100447.78;4879739;29;20047;-88
2021/06/18 07:40:59;;;;;;;6.93;1.75;;;;;;;20.09;58.65;100445.47;4879510;29;20132;-88
2021/06/18 07:43:25;;;;;;;8.27;2.45;;;;;;;20.25;57.63;100434.00;4880498;29;20039;-88
2021/06/18 07:45:50;;;;;;;11.50;2.13;;;;;;;20.38;56.87;100444.16;4881270;29;20040;-88
2021/06/18 07:48:15;;;;;;;7.63;1.90;;;;;;;20.49;57.18;100438.47;4879068;29;20451;-88
2021/06/18 07:50:41;;;;;;;10.05;1.92;;;;;;;20.24;56.43;100442.16;4879582;29;20057;-89
2021/06/18 07:53:07;;;;;;;7.32;1.98;;;;;;;20.34;55.74;100430.34;4888207;29;20099;-89
2021/06/18 07:55:33;;;;;;;6.20;2.28;;;;;;;20.55;55.95;100434.31;4893461;29;20488;-88
2021/06/18 07:57:59;;;;;;;9.40;2.00;;;;;;;20.50;55.90;100431.31;4882549;29;20424;-88
2021/06/18 08:00:25;;;;;;;6.63;2.03;;;;;;;20.71;55.40;100420.13;4878587;29;20039;-88
2021/06/18 08:02:51;;;;;;;7.00;2.05;;;;;;;20.67;55.40;100424.97;4876884;29;20032;-88
2021/06/18 08:05:17;;;;;;;4.88;2.33;;;;;;;20.57;55.87;100433.13;4884521;29;20033;-88
2021/06/18 08:07:44;;;;;;;8.00;2.75;;;;;;;20.76;55.81;100433.81;4883921;29;20155;-88
2021/06/18 08:10:13;;;;;;;9.73;2.50;;;;;;;20.75;56.37;100426.78;4880672;29;20041;-88
2021/06/18 08:12:39;;;;;;;5.60;1.73;;;;;;;20.88;55.33;100432.44;4881570;29;20028;-88
2021/06/18 08:15:05;;;;;;;8.77;2.53;;;;;;;20.57;56.86;100427.78;4880635;29;20116;-88
2021/06/18 08:17:31;;;;;;;8.23;2.80;;;;;;;20.96;55.75;100432.41;4885532;29;20036;-89
2021/06/18 08:19:57;;;;;;;11.27;2.95;;;;;;;21.00;55.96;100436.41;4884749;29;20124;-88
2021/06/18 08:22:22;;;;;;;12.27;3.25;;;;;;;20.90;56.41;100430.44;4883706;29;20076;-88
2021/06/18 08:24:48;;;;;;;13.20;2.92;;;;;;;21.00;56.00;100431.06;4887029;29;20048;-89
2021/06/18 08:27:13;;;;;;;6.45;2.47;;;;;;;20.79;56.30;100425.44;4895129;29;20044;-88
2021/06/18 08:29:39;;;;;;;8.38;2.95;;;;;;;20.96;55.83;100420.91;4880204;29;20041;-89
2021/06/18 08:32:04;;;;;;;11.18;3.20;;;;;;;20.86;55.45;100423.78;4883283;29;20033;-89
2021/06/18 08:34:30;;;;;;;4.07;2.17;;;;;;;21.04;55.53;100423.56;4880294;29;20049;-89
2021/06/18 08:36:55;;;;;;;6.07;2.47;;;;;;;21.16;55.51;100416.00;4875249;29;20389;-89
2021/06/18 08:39:21;;;;;;;8.48;2.60;;;;;;;20.95;56.64;100412.06;4880976;29;20116;-89
2021/06/18 08:41:46;;;;;;;12.55;2.80;;;;;;;20.79;57.63;100417.44;4882110;29;20073;-88
2021/06/18 08:44:12;;;;;;;6.25;3.05;;;;;;;20.76;57.96;100420.47;4889968;29;20528;-88
2021/06/18 08:46:37;;;;;;;15.63;3.08;;;;;;;21.19;56.89;100424.50;4879935;29;20033;-89
2021/06/18 08:49:03;;;;;;;7.20;2.70;;;;;;;21.27;57.15;100415.63;4864893;29;20552;-89
2021/06/18 08:51:28;;;;;;;6.53;3.20;;;;;;;21.12;57.75;100422.69;4879334;29;20037;-89
2021/06/18 08:53:53;;;;;;;10.15;2.95;;;;;;;20.94;57.45;100414.91;4893897;29;20041;-89
2021/06/18 08:56:19;;;;;;;9.77;2.58;;;;;;;20.91;59.94;100413.44;4879522;29;20029;-89
2021/06/18 08:58:45;;;;;;;6.38;2.33;;;;;;;21.08;59.06;100413.38;4879824;29;20548;-88
2021/06/18 09:01:11;;;;;;;8.25;2.67;;;;;;;21.11;57.80;100419.19;4879984;29;20060;-89
2021/06/18 09:03:45;;;;;;;7.85;2.67;;;;;;;21.08;58.54;100410.69;4892317;29;20069;-88
2021/06/18 09:06:30;;;;;;;7.28;2.15;;;;;;;20.81;58.53;100407.44;4898038;29;20025;-88
2021/06/18 09:09:23;;;;;;;7.22;2.25;;;;;;;20.90;59.50;100413.59;4861263;29;20556;-88
2021/06/18 09:11:56;;;;;;;7.45;2.17;;;;;;;20.20;61.41;100402.50;4872936;29;20520;-88
2021/06/18 09:14:31;;;;;;;6.47;2.20;;;;;;;20.62;61.06;100405.13;4879290;29;20047;-89
2021/06/18 09:17:24;;;;;;;6.05;1.85;;;;;;;20.69;60.54;100398.13;4879664;29;20025;-88
2021/06/18 09:19:52;;;;;;;7.68;2.00;;;;;;;20.59;61.14;100406.31;4879152;29;20042;-88
2021/06/18 09:22:22;;;;;;;7.25;1.95;;;;;;;20.11;63.61;100405.34;4888451;29;20033;-89
2021/06/18 09:24:58;;;;;;;6.18;1.85;;;;;;;20.39;63.10;100405.81;4897446;29;20482;-89
2021/06/18 09:27:34;;;;;;;5.90;1.77;;;;;;;20.22;62.45;100404.97;4911971;29;20036;-88
2021/06/18 09:30:36;;;;;;;6.05;1.88;;;;;;;20.43;63.92;100401.81;4898251;29;20051;-88
2021/06/18 09:33:07;;;;;;;4.15;1.48;;;;;;;20.32;63.70;100403.00;4882133;29;20225;-88
2021/06/18 09:35:34;;;;;;;5.07;1.63;;;;;;;20.57;63.47;100398.44;4887067;29;20033;-89
2021/06/18 09:38:02;;;;;;;5.68;2.00;;;;;;;20.78;62.83;100403.28;4878124;29;20071;-88
2021/06/18 09:40:29;;;;;;;6.38;2.30;;;;;;;20.80;64.48;100397.78;4879220;29;20476;-88
2021/06/18 09:42:56;;;;;;;5.95;2.03;;;;;;;20.99;62.88;100402.72;4885578;29;20024;-88
2021/06/18 09:45:28;;;;;;;5.40;1.85;;;;;;;21.18;61.41;100397.97;4879055;29;20165;-88
2021/06/18 09:48:06;;;;;;;3.70;1.90;;;;;;;21.07;62.70;100404.53;4878895;29;20073;-88
2021/06/18 09:50:32;;;;;;;7.20;2.08;;;;;;;20.98;63.35;100401.03;4879222;29;20061;-88
2021/06/18 09:53:14;;;;;;;4.70;1.58;;;;;;;20.90;63.68;100411.75;4879077;29;20095;-88
2021/06/18 09:55:42;;;;;;;5.70;1.83;;;;;;;20.99;62.77;100408.06;4878793;29;20033;-88
2021/06/18 09:58:09;;;;;;;4.30;1.50;;;;;;;20.94;61.91;100401.56;4878813;29;20037;-86
2021/06/18 10:00:35;;;;;;;4.03;1.88;;;;;;;20.61;65.58;100396.31;4878942;29;20484;-87
2021/06/18 10:03:00;;;;;;;6.47;2.10;;;;;;;20.64;65.56;100403.16;4878856;29;20124;-87
2021/06/18 10:05:28;;;;;;;6.55;2.08;;;;;;;20.53;63.94;100389.13;4878071;29;20123;-87
2021/06/18 10:07:55;;;;;;;6.75;2.65;;;;;;;20.51;65.57;100391.13;4878776;29;20029;-87
2021/06/18 10:10:24;;;;;;;4.55;1.98;;;;;;;20.47;65.22;100399.66;4878544;29;20077;-87
2021/06/18 10:12:50;;;;;;;5.20;2.00;;;;;;;20.59;65.57;100395.66;4878744;29;20033;-87
2021/06/18 10:15:23;;;;;;;5.32;2.03;;;;;;;20.53;65.88;100397.13;4878992;29;20048;-88
2021/06/18 10:17:50;;;;;;;4.13;2.03;;;;;;;20.71;63.29;100406.78;4878584;29;20039;-87
2021/06/18 10:20:25;;;;;;;3.92;2.20;;;;;;;20.50;66.63;100392.16;4878720;29;20056;-88
2021/06/18 10:22:55;;;;;;;4.25;1.83;;;;;;;20.57;66.30;100393.13;4888179;29;20082;-88
2021/06/18 10:25:53;;;;;;;4.47;2.60;;;;;;;20.85;65.04;100395.41;4897018;29;20036;-88
2021/06/18 10:28:29;;;;;;;4.63;2.05;;;;;;;20.50;67.77;100389.47;4887622;29;20064;-88
2021/06/18 10:30:57;;;;;;;5.20;1.98;;;;;;;20.56;67.33;100395.97;4878345;29;20068;-88
2021/06/18 10:33:26;;;;;;;3.92;2.05;;;;;;;20.40;68.59;100399.50;4878017;29;20032;-88
2021/06/18 10:36:11;;;;;;;5.13;2.45;;;;;;;20.69;67.92;100401.63;4878268;29;20119;-87
2021/06/18 10:38:40;;;;;;;3.78;2.10;;;;;;;20.66;66.69;100401.16;4877522;29;20513;-89
2021/06/18 10:41:17;;;;;;;4.65;2.38;;;;;;;20.46;67.22;100406.81;4878207;29;20044;-87
2021/06/18 10:43:44;;;;;;;4.90;2.30;;;;;;;20.33;68.63;100407.31;4877036;29;20040;-87
2021/06/18 10:46:15;;;;;;;4.75;2.13;;;;;;;20.77;66.88;100403.44;4877684;29;20025;-86
2021/06/18 10:48:46;;;;;;;3.87;1.90;;;;;;;20.79;67.56;100412.09;4877622;29;20036;-87
2021/06/18 10:51:27;;;;;;;3.78;2.22;;;;;;;20.75;69.26;100403.63;4878067;29;20276;-86
2021/06/18 10:54:02;;;;;;;6.38;2.42;;;;;;;20.30;70.30;100402.34;4884452;29;20074;-86
2021/06/18 10:57:21;;;;;;;4.68;1.52;;;;;;;20.52;68.52;100391.97;4877946;29;20453;-86
2021/06/18 10:59:48;;;;;;;4.07;2.08;;;;;;;20.25;69.60;100399.31;4870618;29;20049;-87
2021/06/18 11:02:23;;;;;;;4.28;1.92;;;;;;;20.42;70.61;100400.16;4880113;29;20071;-85
2021/06/18 11:04:55;;;;;;;5.15;1.85;;;;;;;20.23;71.45;100395.16;4880840;29;20037;-85
2021/06/18 11:07:28;;;;;;;3.60;2.05;;;;;;;20.67;70.42;100397.47;4877881;29;20393;-85
2021/06/18 11:10:06;;;;;;;3.15;1.80;;;;;;;20.77;68.10;100388.28;4882670;29;20036;-85
2021/06/18 11:12:31;;;;;;;3.10;1.55;;;;;;;21.03;66.94;100397.03;4892940;29;20020;-85
2021/06/18 11:15:21;;;;;;;4.13;1.50;;;;;;;21.18;68.69;100384.63;4892556;29;20440;-84
2021/06/18 11:18:17;;;;;;;3.92;1.95;;;;;;;21.15;69.35;100396.47;4868107;29;20104;-88
2021/06/18 11:20:43;;;;;;;3.38;1.80;;;;;;;21.17;66.54;100391.81;4902347;29;20037;-85
2021/06/18 11:23:13;;;;;;;2.40;1.75;;;;;;;21.20;69.51;100396.78;4876018;29;20040;-85
2021/06/18 11:25:39;;;;;;;4.10;1.80;;;;;;;20.99;70.18;100388.53;4877544;29;20037;-85
2021/06/18 11:31:01;;;;;;;2.67;1.40;;;;;;;21.30;66.42;100385.88;4876100;29;20537;-85
2021/06/18 11:33:36;;;;;;;;;;;;;;;21.39;68.92;100389.38;4874508;29;20025;-85
2021/06/18 11:36:03;;;;;;;1.65;1.30;;;;;;;20.96;70.67;100391.56;4876548;29;19927;-85